createdAt,value
2022-12-25T00:05:06.903Z,5.20
2022-12-25T00:10:33.884Z,5.18
2022-12-25T00:15:58.915Z,5.12
2022-12-25T00:21:22.877Z,5.15
2022-12-25T00:26:50.892Z,5.11
2022-12-25T00:32:15.935Z,5.10
2022-12-25T00:37:41.295Z,5.07
2022-12-25T00:43:07.897Z,5.02
2022-12-25T00:48:34.133Z,4.98
2022-12-25T00:53:58.874Z,4.94
2022-12-25T00:59:26.885Z,4.90
2022-12-25T01:04:50.888Z,4.84
2022-12-25T01:10:33.886Z,4.83
2022-12-25T01:16:01.962Z,4.78
2022-12-25T01:21:29.019Z,4.75
2022-12-25T01:26:54.149Z,4.73
2022-12-25T01:32:21.920Z,4.70
2022-12-25T01:37:45.929Z,4.69
2022-12-25T01:43:17.040Z,4.64
2022-12-25T01:48:47.964Z,4.62
2022-12-25T01:54:15.908Z,4.62
2022-12-25T01:59:42.304Z,4.59
2022-12-25T02:05:14.964Z,4.58
2022-12-25T02:10:40.083Z,4.59
2022-12-25T02:16:10.975Z,4.63
2022-12-25T02:21:57.316Z,4.63
2022-12-25T02:27:33.924Z,4.60
2022-12-25T02:33:23.935Z,4.58
2022-12-25T02:39:11.949Z,4.56
2022-12-25T02:44:51.951Z,4.58
2022-12-25T02:50:33.944Z,4.61
2022-12-25T02:56:12.960Z,4.63
2022-12-25T03:01:55.088Z,4.65
2022-12-25T03:07:24.975Z,4.66
2022-12-25T03:12:56.956Z,4.62
2022-12-25T03:18:25.991Z,4.60
2022-12-25T03:24:10.987Z,4.59
2022-12-25T03:29:58.948Z,4.59
2022-12-25T03:35:31.951Z,4.60
2022-12-25T03:41:23.991Z,4.66
2022-12-25T03:47:06.023Z,4.76
2022-12-25T03:52:47.014Z,4.80
2022-12-25T03:58:29.976Z,4.81
2022-12-25T04:04:06.985Z,4.78
2022-12-25T04:09:45.008Z,4.77
2022-12-25T04:15:25.005Z,4.79
2022-12-25T04:21:13.976Z,4.87
2022-12-25T04:26:58.032Z,4.96
2022-12-25T04:32:37.978Z,5.01
2022-12-25T04:38:02.028Z,5.00
2022-12-25T04:43:26.981Z,5.02
2022-12-25T04:48:54.012Z,5.04
2022-12-25T04:54:19.028Z,5.07
2022-12-25T04:59:43.013Z,5.10
2022-12-25T05:05:11.037Z,5.15
2022-12-25T05:10:36.015Z,5.17
2022-12-25T05:16:02.080Z,5.22
2022-12-25T05:21:30.018Z,5.27
2022-12-25T05:27:01.000Z,5.33
2022-12-25T05:32:26.011Z,5.37
2022-12-25T05:37:53.017Z,5.39
2022-12-25T05:43:18.043Z,5.42
2022-12-25T05:48:43.093Z,5.44
2022-12-25T05:54:11.025Z,5.42
2022-12-25T05:59:35.017Z,5.38
2022-12-25T06:05:00.329Z,5.32
2022-12-25T06:10:28.071Z,5.32
2022-12-25T06:15:53.185Z,5.35
2022-12-25T06:21:21.125Z,5.38
2022-12-25T06:26:50.091Z,5.40
2022-12-25T06:32:15.091Z,5.42
2022-12-25T06:37:41.089Z,5.44
2022-12-25T06:43:08.108Z,5.42
2022-12-25T06:48:33.063Z,5.48
2022-12-25T06:53:57.036Z,5.50
2022-12-25T06:59:25.071Z,5.57
2022-12-25T07:04:52.072Z,5.61
2022-12-25T07:10:18.087Z,5.69
2022-12-25T07:15:45.076Z,5.73
2022-12-25T07:21:15.059Z,5.79
2022-12-25T07:26:46.070Z,5.82
2022-12-25T07:32:14.070Z,5.87
2022-12-25T07:37:39.070Z,5.90
2022-12-25T07:43:04.073Z,5.94
2022-12-25T07:48:31.068Z,6.01
2022-12-25T07:53:56.100Z,6.15
2022-12-25T07:59:20.089Z,6.31
2022-12-25T08:04:48.093Z,6.41
2022-12-25T08:10:12.078Z,6.48
2022-12-25T08:15:37.087Z,6.55
2022-12-25T08:21:04.128Z,6.62
2022-12-25T08:26:31.135Z,6.69
2022-12-25T08:31:59.170Z,6.74
2022-12-25T08:37:27.071Z,6.81
2022-12-25T08:42:51.119Z,6.86
2022-12-25T08:48:16.141Z,6.95
2022-12-25T08:53:43.186Z,7.03
2022-12-25T08:59:09.101Z,7.13
2022-12-25T09:04:33.143Z,7.22
2022-12-25T09:10:01.138Z,7.30
2022-12-25T09:15:26.120Z,7.37
2022-12-25T09:20:51.138Z,7.47
2022-12-25T09:26:19.142Z,7.59
2022-12-25T09:31:44.148Z,7.67
2022-12-25T09:37:08.126Z,7.79
2022-12-25T09:42:38.128Z,7.92
2022-12-25T09:48:04.137Z,8.08
2022-12-25T09:53:32.119Z,8.26
2022-12-25T09:58:59.142Z,8.41
2022-12-25T10:04:41.105Z,8.58
2022-12-25T10:10:09.144Z,8.59
2022-12-25T10:15:46.271Z,8.71
2022-12-25T10:21:13.399Z,8.77
2022-12-25T10:26:47.180Z,8.84
2022-12-25T10:32:15.159Z,8.91
2022-12-25T10:37:41.216Z,9.00
2022-12-25T10:43:13.201Z,9.09
2022-12-25T10:48:43.169Z,9.23
2022-12-25T10:54:08.145Z,9.33
2022-12-25T10:59:33.187Z,9.47
2022-12-25T11:05:02.175Z,9.54
2022-12-25T11:10:37.203Z,9.61
2022-12-25T11:16:14.266Z,9.61
2022-12-25T11:21:43.207Z,9.70
2022-12-25T11:27:11.151Z,9.81
2022-12-25T11:32:42.191Z,9.94
2022-12-25T11:38:10.163Z,9.99
2022-12-25T11:43:38.207Z,10.05
2022-12-25T11:49:07.204Z,10.02
2022-12-25T11:54:41.228Z,10.01
2022-12-25T12:00:13.248Z,10.02
2022-12-25T12:05:44.200Z,10.06
2022-12-25T12:11:28.220Z,10.05
2022-12-25T12:16:52.209Z,10.07
2022-12-25T12:22:27.236Z,10.03
2022-12-25T12:28:01.248Z,9.98
2022-12-25T12:33:30.259Z,9.92
2022-12-25T12:38:55.218Z,9.92
2022-12-25T12:44:25.214Z,9.83
2022-12-25T12:49:50.236Z,9.80
2022-12-25T12:55:19.221Z,9.77
2022-12-25T13:00:58.317Z,9.76
2022-12-25T13:06:27.277Z,9.74
2022-12-25T13:11:57.219Z,9.70
2022-12-25T13:17:29.221Z,9.68
2022-12-25T13:22:53.356Z,9.66
2022-12-25T13:28:29.242Z,9.61
2022-12-25T13:34:02.227Z,9.59
2022-12-25T13:39:33.259Z,9.59
2022-12-25T13:45:01.290Z,9.57
2022-12-25T13:50:36.281Z,9.56
2022-12-25T13:56:04.255Z,9.53
2022-12-25T14:01:31.346Z,9.52
2022-12-25T14:07:00.289Z,9.48
2022-12-25T14:12:25.288Z,9.46
2022-12-25T14:17:50.271Z,9.43
2022-12-25T14:23:17.263Z,9.43
2022-12-25T14:28:49.320Z,9.41
2022-12-25T14:34:20.265Z,9.40
2022-12-25T14:39:54.269Z,9.37
2022-12-25T14:45:36.345Z,9.35
2022-12-25T14:51:07.327Z,9.27
2022-12-25T14:56:45.279Z,9.32
2022-12-25T15:02:15.122Z,9.30
2022-12-25T15:07:43.289Z,9.28
2022-12-25T15:13:11.309Z,9.23
2022-12-25T15:18:37.299Z,9.22
2022-12-25T15:24:02.341Z,9.17
2022-12-25T15:30:08.575Z,9.17
2022-12-25T15:35:25.299Z,9.12
2022-12-25T15:40:49.319Z,9.14
2022-12-25T15:46:18.387Z,9.20
2022-12-25T15:51:43.329Z,9.30
2022-12-25T15:57:11.304Z,9.36
2022-12-25T16:02:38.517Z,9.40
2022-12-25T16:08:03.351Z,9.43
2022-12-25T16:13:27.305Z,9.48
2022-12-25T16:18:55.352Z,9.50
2022-12-25T16:24:22.003Z,9.50
2022-12-25T16:29:54.467Z,9.50
2022-12-25T16:35:22.400Z,9.53
2022-12-25T16:40:47.363Z,9.55
2022-12-25T16:46:19.367Z,9.53
2022-12-25T16:51:46.352Z,9.48
2022-12-25T16:57:11.372Z,9.54
2022-12-25T17:02:37.550Z,9.55
2022-12-25T17:08:06.372Z,9.54
2022-12-25T17:13:30.383Z,9.53
2022-12-25T17:18:55.350Z,9.50
2022-12-25T17:24:24.348Z,9.53
2022-12-25T17:29:55.430Z,9.57
2022-12-25T17:35:20.386Z,9.60
2022-12-25T17:40:47.387Z,9.60
2022-12-25T17:46:14.448Z,9.63
2022-12-25T17:51:41.386Z,9.66
2022-12-25T17:57:09.392Z,9.70
2022-12-25T18:02:33.524Z,9.74
2022-12-25T18:07:58.399Z,9.78
2022-12-25T18:13:26.380Z,9.80
2022-12-25T18:18:53.078Z,9.86
2022-12-25T18:24:25.461Z,9.91
2022-12-25T18:29:59.403Z,9.92
2022-12-25T18:35:24.600Z,9.98
2022-12-25T18:40:48.398Z,10.09
2022-12-25T18:46:16.455Z,10.08
2022-12-25T18:51:41.428Z,10.12
2022-12-25T18:57:07.406Z,10.12
2022-12-25T19:02:34.471Z,10.16
2022-12-25T19:08:00.429Z,10.15
2022-12-25T19:13:24.410Z,10.20
2022-12-25T19:18:54.459Z,10.19
2022-12-25T19:24:19.470Z,10.15
2022-12-25T19:29:50.551Z,10.16
2022-12-25T19:35:18.445Z,10.20
2022-12-25T19:40:42.444Z,10.20
2022-12-25T19:46:09.559Z,10.18
2022-12-25T19:51:39.453Z,10.17
2022-12-25T19:57:05.460Z,10.15
2022-12-25T20:02:30.594Z,10.13
2022-12-25T20:07:58.471Z,10.13
2022-12-25T20:13:22.510Z,10.13
2022-12-25T20:18:48.455Z,10.09
2022-12-25T20:24:16.534Z,10.09
2022-12-25T20:29:41.520Z,10.12
2022-12-25T20:35:07.507Z,10.13
2022-12-25T20:40:59.952Z,10.14
2022-12-25T20:46:20.520Z,10.18
2022-12-25T20:52:04.596Z,10.12
2022-12-25T20:57:32.462Z,10.10
2022-12-25T21:02:57.571Z,10.05
2022-12-25T21:08:21.535Z,10.03
2022-12-25T21:13:51.502Z,10.00
2022-12-25T21:19:15.472Z,9.95
2022-12-25T21:24:46.469Z,9.91
2022-12-25T21:30:16.082Z,9.91
2022-12-25T21:35:39.476Z,9.93
2022-12-25T21:41:04.499Z,9.90
2022-12-25T21:46:32.540Z,9.93
2022-12-25T21:52:10.490Z,9.93
2022-12-25T21:57:34.483Z,9.93
2022-12-25T22:03:02.660Z,9.95
2022-12-25T22:08:28.528Z,9.95
2022-12-25T22:14:06.534Z,9.99
2022-12-25T22:19:46.502Z,9.95
2022-12-25T22:25:12.559Z,9.91
2022-12-25T22:30:39.514Z,9.82
2022-12-25T22:36:13.505Z,9.78
2022-12-25T22:41:37.520Z,9.77
2022-12-25T22:47:02.534Z,9.76
2022-12-25T22:52:29.535Z,9.82
2022-12-25T22:57:55.536Z,9.81
2022-12-25T23:03:19.704Z,9.81
2022-12-25T23:08:47.547Z,9.83
2022-12-25T23:14:24.538Z,9.81
2022-12-25T23:20:01.571Z,9.78
2022-12-25T23:25:48.557Z,9.74
2022-12-25T23:31:13.622Z,9.76
2022-12-25T23:36:38.563Z,9.78
2022-12-25T23:42:06.568Z,9.77
2022-12-25T23:47:30.550Z,9.72
2022-12-25T23:52:55.558Z,9.73
2022-12-25T23:58:22.567Z,9.72
